Time;durP1;ratioP1;P1;durP2;ratioP2;P2;SDS_P1;SDS_P2;PMS_P1;PMS_P2;Temp;Humidity;BMP_temperature;BMP_pressure;BME280_temperature;BME280_humidity;BME280_pressure;Samples;Min_cycle;Max_cycle;Signal;HPM_P1;HPM_P2
2022/05/09 00:02:02;;;;;;;6.40;1.90;;;16.50;99.90;;;;;;5088391;28;20388;-91
2022/05/09 00:04:29;;;;;;;5.88;2.00;;;16.50;99.90;;;;;;5088228;28;20378;-89
2022/05/09 00:06:57;;;;;;;5.72;1.60;;;16.70;99.90;;;;;;5089582;28;20376;-89
2022/05/09 00:09:24;;;;;;;6.47;2.03;;;16.90;99.90;;;;;;5089248;28;20463;-88
2022/05/09 00:11:51;;;;;;;5.40;1.52;;;17.00;99.90;;;;;;5089230;28;20372;-91
2022/05/09 00:14:18;;;;;;;3.05;1.40;;;16.90;99.90;;;;;;5089400;28;20438;-89
2022/05/09 00:16:45;;;;;;;4.27;1.80;;;16.80;99.90;;;;;;5089393;28;20903;-90
2022/05/09 00:19:17;;;;;;;3.80;1.77;;;16.70;99.90;;;;;;5089139;28;20388;-89
2022/05/09 00:21:44;;;;;;;3.83;1.67;;;16.60;99.90;;;;;;5087835;28;20408;-87
2022/05/09 00:24:15;;;;;;;5.50;1.75;;;16.70;99.90;;;;;;5088032;28;20422;-89
2022/05/09 00:26:43;;;;;;;5.18;1.80;;;16.70;99.90;;;;;;5089400;28;20948;-90
2022/05/09 00:29:12;;;;;;;3.67;1.70;;;16.70;99.90;;;;;;5088814;28;20444;-90
2022/05/09 00:31:40;;;;;;;4.70;1.80;;;16.70;99.90;;;;;;5089036;28;20388;-90
2022/05/09 00:34:08;;;;;;;4.37;1.90;;;16.40;99.90;;;;;;5070616;28;20408;-89
2022/05/09 00:36:35;;;;;;;7.00;2.28;;;16.30;99.90;;;;;;5088856;28;20737;-87
2022/05/09 00:39:03;;;;;;;15.63;3.03;;;16.20;99.90;;;;;;5088757;28;20381;-88
2022/05/09 00:41:37;;;;;;;15.93;3.10;;;16.20;99.90;;;;;;5088681;28;20471;-90
2022/05/09 00:44:33;;;;;;;12.00;2.55;;;16.30;99.90;;;;;;5088514;28;20376;-88
2022/05/09 00:47:00;;;;;;;4.45;1.98;;;16.30;99.90;;;;;;5046032;28;20419;-88
2022/05/09 00:49:45;;;;;;;6.53;2.10;;;16.30;99.90;;;;;;5045804;28;20935;-87
2022/05/09 00:52:26;;;;;;;4.53;2.20;;;16.10;99.90;;;;;;5045894;28;20398;-87
2022/05/09 00:55:22;;;;;;;4.15;2.50;;;15.80;99.90;;;;;;5045830;28;20411;-88
2022/05/09 00:58:03;;;;;;;3.95;2.70;;;15.70;99.90;;;;;;5045354;28;20364;-87
2022/05/09 01:00:30;;;;;;;4.75;3.00;;;15.80;99.90;;;;;;5046041;28;20380;-88
2022/05/09 01:03:06;;;;;;;5.80;2.70;;;16.00;99.90;;;;;;5045792;28;20383;-86
2022/05/09 01:05:33;;;;;;;4.40;2.63;;;15.90;99.90;;;;;;5045761;28;20416;-88
2022/05/09 01:08:00;;;;;;;4.22;2.53;;;15.80;99.90;;;;;;5045821;28;20380;-87
2022/05/09 01:10:34;;;;;;;5.50;2.70;;;15.70;99.90;;;;;;5045879;28;20399;-86
2022/05/09 01:13:05;;;;;;;4.90;2.53;;;15.60;99.90;;;;;;5045523;28;20434;-90
2022/05/09 01:15:33;;;;;;;4.93;2.43;;;15.70;99.90;;;;;;5045577;28;20490;-90
2022/05/09 01:18:04;;;;;;;5.38;2.97;;;15.80;99.90;;;;;;5067673;28;20380;-92
2022/05/09 01:20:31;;;;;;;3.70;2.20;;;15.90;99.90;;;;;;5088705;28;20372;-92
2022/05/09 01:22:59;;;;;;;4.53;2.30;;;16.10;99.90;;;;;;5088179;28;20371;-89
2022/05/09 01:25:31;;;;;;;3.70;2.30;;;16.10;99.90;;;;;;5088175;28;20799;-88
2022/05/09 01:27:59;;;;;;;4.38;2.38;;;16.30;99.90;;;;;;5087924;28;20383;-91
2022/05/09 01:30:39;;;;;;;3.75;2.20;;;16.30;99.90;;;;;;5087693;28;20473;-90
2022/05/09 01:33:33;;;;;;;4.85;2.15;;;16.40;99.90;;;;;;5087474;28;20396;-88
2022/05/09 01:36:16;;;;;;;4.30;2.10;;;16.50;99.90;;;;;;5086543;28;20483;-88
2022/05/09 01:39:05;;;;;;;3.50;2.07;;;16.30;99.90;;;;;;5087298;28;20368;-87
2022/05/09 01:41:44;;;;;;;3.45;1.80;;;16.40;99.90;;;;;;5087184;28;20391;-90
2022/05/09 01:44:12;;;;;;;2.55;1.80;;;16.60;99.90;;;;;;5087368;28;20954;-87
2022/05/09 01:49:30;;;;;;;2.10;1.70;;;16.80;99.90;;;;;;5087478;28;20439;-90
2022/05/09 01:52:00;;;;;;;3.25;1.95;;;16.90;99.90;;;;;;5086007;28;20385;-88
2022/05/09 01:54:27;;;;;;;4.00;2.00;;;16.80;99.90;;;;;;5087156;28;20393;-91
2022/05/09 01:56:55;;;;;;;3.65;2.30;;;16.70;99.90;;;;;;5087083;28;20376;-89
2022/05/09 01:59:23;;;;;;;3.35;2.50;;;17.10;99.90;;;;;;5087065;28;20381;-88
2022/05/09 02:02:03;;;;;;;3.63;2.40;;;16.50;99.90;;;;;;5087370;28;20455;-86
2022/05/09 02:04:31;;;;;;;5.68;2.92;;;16.50;99.90;;;;;;5087684;28;20455;-86
2022/05/09 02:06:58;;;;;;;4.95;2.70;;;16.50;99.90;;;;;;5088079;28;20369;-93
2022/05/09 02:09:24;;;;;;;5.18;3.13;;;16.70;99.90;;;;;;5086995;28;20372;-89
2022/05/09 02:11:51;;;;;;;4.20;2.67;;;16.60;99.90;;;;;;5087704;28;20373;-87
2022/05/09 02:14:18;;;;;;;5.38;2.90;;;16.50;99.90;;;;;;5088002;28;20416;-87
2022/05/09 02:16:45;;;;;;;6.75;3.00;;;16.60;99.90;;;;;;5087820;28;20373;-87
2022/05/09 02:19:12;;;;;;;4.15;2.70;;;16.60;99.90;;;;;;5087245;28;20380;-87
2022/05/09 02:21:39;;;;;;;6.18;3.00;;;16.50;99.90;;;;;;5087165;28;20422;-86
2022/05/09 02:24:07;;;;;;;4.10;2.70;;;16.40;99.90;;;;;;5087133;28;20380;-86
2022/05/09 02:26:34;;;;;;;4.75;2.90;;;16.30;99.90;;;;;;5087140;28;20364;-86
2022/05/09 02:29:01;;;;;;;4.47;3.08;;;16.30;99.90;;;;;;5087339;28;20471;-92
2022/05/09 02:31:30;;;;;;;4.28;3.10;;;16.10;99.90;;;;;;5087123;28;20483;-87
2022/05/09 02:33:57;;;;;;;6.38;2.90;;;16.00;99.90;;;;;;5087561;28;20434;-88
2022/05/09 02:36:24;;;;;;;5.17;2.70;;;16.00;99.90;;;;;;5086664;28;20430;-84
2022/05/09 02:38:51;;;;;;;4.70;3.00;;;16.00;99.90;;;;;;5086789;28;20407;-85
2022/05/09 02:41:18;;;;;;;3.25;2.70;;;16.10;99.90;;;;;;5086605;28;20502;-90
2022/05/09 02:43:45;;;;;;;3.42;2.60;;;16.10;99.90;;;;;;5086592;28;20852;-89
2022/05/09 02:46:12;;;;;;;4.38;2.72;;;16.10;99.90;;;;;;5086831;28;20737;-86
2022/05/09 02:48:39;;;;;;;4.30;2.65;;;16.10;99.90;;;;;;5087213;28;20759;-89
2022/05/09 02:51:08;;;;;;;3.78;2.40;;;16.10;99.90;;;;;;5086077;28;20756;-89
2022/05/09 02:53:36;;;;;;;3.58;2.40;;;16.10;99.90;;;;;;5086969;28;20492;-90
2022/05/09 02:56:04;;;;;;;2.92;2.47;;;15.90;99.90;;;;;;5087181;28;20749;-90
2022/05/09 02:58:32;;;;;;;2.78;2.40;;;15.80;99.90;;;;;;5087582;28;20372;-90
2022/05/09 03:00:59;;;;;;;3.70;2.92;;;15.70;99.90;;;;;;5088654;28;20377;-91
2022/05/09 03:06:11;;;;;;;3.90;3.10;;;15.70;99.90;;;;;;5087426;28;20368;-89
2022/05/09 03:08:39;;;;;;;3.38;2.50;;;15.80;99.90;;;;;;5087220;28;20372;-88
2022/05/09 03:11:06;;;;;;;4.32;2.50;;;15.90;99.90;;;;;;5089713;28;20376;-88
2022/05/09 03:13:34;;;;;;;3.67;2.40;;;16.00;99.90;;;;;;5091536;28;20464;-90
2022/05/09 03:16:02;;;;;;;3.53;2.60;;;15.90;99.90;;;;;;5088337;28;20395;-89
2022/05/09 03:18:29;;;;;;;4.97;2.90;;;15.90;99.90;;;;;;5086121;28;20380;-85
2022/05/09 03:20:56;;;;;;;3.15;2.83;;;15.80;99.90;;;;;;5090061;28;20409;-90
2022/05/09 03:23:23;;;;;;;3.83;2.90;;;15.90;99.90;;;;;;5088346;28;20904;-86
2022/05/09 03:25:50;;;;;;;2.90;2.65;;;16.10;99.90;;;;;;5090169;28;20379;-86
2022/05/09 03:28:26;;;;;;;3.88;2.88;;;16.10;99.90;;;;;;5089674;28;20377;-91
2022/05/09 03:30:56;;;;;;;2.83;2.35;;;16.00;99.90;;;;;;5089955;28;20889;-86
2022/05/09 03:33:26;;;;;;;3.00;2.67;;;16.10;99.90;;;;;;5089415;28;20439;-87
2022/05/09 03:35:54;;;;;;;2.50;2.08;;;16.30;99.90;;;;;;5089750;28;20376;-87
2022/05/09 03:38:22;;;;;;;3.33;2.50;;;16.60;99.90;;;;;;5089943;28;20408;-90
2022/05/09 03:40:49;;;;;;;3.97;1.90;;;16.90;99.90;;;;;;5090031;28;20505;-86
2022/05/09 03:43:16;;;;;;;2.13;1.80;;;17.00;99.90;;;;;;5089596;28;20455;-88
2022/05/09 03:45:45;;;;;;;1.73;1.60;;;17.20;99.90;;;;;;5090216;28;20463;-90
2022/05/09 03:48:12;;;;;;;2.22;1.60;;;17.20;99.90;;;;;;5089983;28;20376;-87
2022/05/09 03:50:39;;;;;;;1.70;1.60;;;17.00;99.90;;;;;;5089813;28;20404;-88
2022/05/09 03:53:06;;;;;;;1.95;1.40;;;16.90;99.90;;;;;;5089983;28;20404;-92
2022/05/09 03:55:33;;;;;;;1.40;1.15;;;16.90;99.90;;;;;;5089903;28;20372;-89
2022/05/09 03:58:02;;;;;;;1.73;1.20;;;17.00;99.90;;;;;;5091930;28;20380;-91
2022/05/09 04:00:32;;;;;;;2.80;1.27;;;17.00;99.90;;;;;;5089384;28;20369;-86
2022/05/09 04:03:01;;;;;;;3.45;1.40;;;17.00;99.90;;;;;;5093760;28;20376;-83
2022/05/09 04:05:30;;;;;;;1.63;1.10;;;17.00;99.90;;;;;;5097725;28;20486;-83
2022/05/09 04:08:00;;;;;;;2.03;1.40;;;17.10;99.90;;;;;;5089259;28;20397;-90
2022/05/09 04:10:30;;;;;;;2.37;1.30;;;17.20;99.90;;;;;;5089105;28;20384;-88
2022/05/09 04:12:58;;;;;;;2.67;1.30;;;17.10;99.90;;;;;;5093237;28;20387;-90
2022/05/09 04:18:11;;;;;;;2.20;1.50;;;16.80;99.90;;;;;;5110002;28;20786;-89
2022/05/09 04:20:38;;;;;;;1.98;1.30;;;16.70;99.90;;;;;;5109754;28;20375;-89
2022/05/09 04:23:06;;;;;;;2.15;1.45;;;16.60;99.90;;;;;;5109944;28;20377;-92
2022/05/09 04:25:33;;;;;;;1.90;1.60;;;16.50;99.90;;;;;;5109581;27;20919;-88
2022/05/09 04:28:02;;;;;;;2.28;1.42;;;16.50;99.90;;;;;;5109523;28;20375;-91
2022/05/09 04:30:31;;;;;;;2.70;1.30;;;16.60;99.90;;;;;;5109304;28;20782;-86
2022/05/09 04:32:58;;;;;;;1.77;1.10;;;16.80;99.90;;;;;;5109872;28;20886;-92
2022/05/09 04:35:25;;;;;;;2.40;1.10;;;16.80;99.90;;;;;;5109417;28;20756;-89
2022/05/09 04:37:55;;;;;;;1.50;1.10;;;16.80;99.90;;;;;;5109887;28;20381;-90
2022/05/09 04:40:24;;;;;;;2.30;1.30;;;16.90;99.90;;;;;;5110037;28;20374;-87
2022/05/09 04:42:52;;;;;;;2.58;1.50;;;16.90;99.90;;;;;;5110587;28;20450;-86
2022/05/09 04:45:19;;;;;;;3.13;1.42;;;16.80;99.90;;;;;;5108793;28;20394;-88
2022/05/09 04:47:49;;;;;;;2.30;1.38;;;16.90;99.90;;;;;;5109767;28;20431;-93
2022/05/09 04:50:17;;;;;;;2.53;1.40;;;16.80;99.90;;;;;;5110046;27;20448;-89
2022/05/09 04:52:44;;;;;;;2.00;1.40;;;16.90;99.90;;;;;;5110811;28;20371;-93
2022/05/09 04:55:12;;;;;;;2.90;1.30;;;17.00;99.90;;;;;;5115119;28;20410;-88
2022/05/09 04:57:40;;;;;;;2.13;1.20;;;17.10;99.90;;;;;;5119316;28;20365;-89
2022/05/09 05:00:14;;;;;;;2.57;1.20;;;17.00;99.90;;;;;;5116429;28;20396;-87
2022/05/09 05:02:41;;;;;;;2.72;1.40;;;17.10;99.90;;;;;;5112394;28;20404;-89
2022/05/09 05:05:09;;;;;;;1.70;1.30;;;17.10;99.90;;;;;;5109658;28;20433;-89
2022/05/09 05:07:36;;;;;;;2.70;1.40;;;17.00;99.90;;;;;;5107954;28;20747;-87
2022/05/09 05:10:04;;;;;;;2.45;1.10;;;16.90;99.90;;;;;;5108957;28;20370;-91
2022/05/09 05:12:31;;;;;;;1.70;1.20;;;16.80;99.90;;;;;;5107696;28;20459;-92
2022/05/09 05:15:00;;;;;;;2.08;1.20;;;16.90;99.90;;;;;;5107444;28;20766;-88
2022/05/09 05:17:27;;;;;;;1.95;1.00;;;16.80;99.90;;;;;;5109134;27;20473;-92
2022/05/09 05:19:54;;;;;;;1.40;0.90;;;16.80;99.90;;;;;;5110713;28;20467;-90
2022/05/09 05:22:21;;;;;;;1.35;0.82;;;16.80;99.90;;;;;;5109670;28;20371;-91
2022/05/09 05:24:54;;;;;;;2.80;1.00;;;16.90;99.90;;;;;;5109796;28;20401;-90
2022/05/09 05:27:22;;;;;;;1.80;0.90;;;16.80;99.90;;;;;;5110147;28;20374;-91
2022/05/09 05:29:49;;;;;;;1.25;0.80;;;16.90;99.90;;;;;;5106768;28;20477;-91
2022/05/09 05:32:25;;;;;;;1.90;0.88;;;16.80;99.90;;;;;;5096944;28;20732;-90
2022/05/09 05:34:52;;;;;;;3.35;1.20;;;16.80;99.90;;;;;;5086171;28;20769;-88
2022/05/09 05:37:20;;;;;;;1.42;0.88;;;16.70;99.90;;;;;;5087459;28;20376;-90
2022/05/09 05:39:48;;;;;;;1.75;0.88;;;16.80;99.90;;;;;;5088045;28;20803;-89
2022/05/09 05:42:17;;;;;;;1.92;1.02;;;16.80;99.90;;;;;;5087835;28;20368;-88
2022/05/09 05:44:48;;;;;;;1.75;0.98;;;16.80;99.90;;;;;;5087402;28;20944;-89
2022/05/09 05:47:19;;;;;;;2.30;0.93;;;16.80;99.90;;;;;;5087965;28;20503;-88
2022/05/09 05:49:49;;;;;;;1.60;0.80;;;16.70;99.90;;;;;;5105630;28;20385;-88
2022/05/09 05:52:16;;;;;;;2.03;0.80;;;16.80;99.90;;;;;;5108189;28;20428;-89
2022/05/09 05:54:47;;;;;;;3.22;0.90;;;16.70;99.90;;;;;;5098469;28;20408;-89
2022/05/09 05:57:26;;;;;;;1.77;0.90;;;16.70;99.90;;;;;;5085970;28;20384;-89
2022/05/09 06:00:04;;;;;;;1.48;0.88;;;16.80;99.90;;;;;;5089421;28;20416;-91
2022/05/09 06:02:32;;;;;;;2.90;0.80;;;16.80;99.90;;;;;;5090031;28;20402;-88
2022/05/09 06:04:59;;;;;;;1.00;0.80;;;16.70;99.90;;;;;;5088576;28;20384;-88
2022/05/09 06:07:26;;;;;;;2.10;0.73;;;16.70;99.90;;;;;;5092910;28;20383;-86
2022/05/09 06:09:53;;;;;;;1.38;0.75;;;16.60;99.90;;;;;;5096947;28;20460;-89
2022/05/09 06:12:23;;;;;;;2.20;0.80;;;16.60;99.90;;;;;;5087573;28;20376;-89
2022/05/09 06:17:37;;;;;;;1.17;0.75;;;16.60;99.90;;;;;;5088208;28;20366;-88
2022/05/09 06:20:11;;;;;;;1.20;0.80;;;16.50;99.90;;;;;;5089952;28;20768;-87
2022/05/09 06:22:39;;;;;;;1.40;0.90;;;16.40;99.90;;;;;;5069663;28;20876;-87
2022/05/09 06:25:12;;;;;;;1.90;1.10;;;16.40;99.90;;;;;;5093377;28;20878;-87
2022/05/09 06:27:41;;;;;;;1.30;1.20;;;16.30;99.90;;;;;;5089789;28;20732;-92
2022/05/09 06:30:11;;;;;;;2.83;1.40;;;16.30;99.90;;;;;;5087264;28;20479;-90
2022/05/09 06:32:38;;;;;;;2.70;1.20;;;16.20;99.90;;;;;;5106812;28;20374;-91
2022/05/09 06:35:09;;;;;;;1.85;1.40;;;16.10;99.90;;;;;;5094228;28;20415;-89
2022/05/09 06:37:38;;;;;;;2.00;1.10;;;16.00;99.90;;;;;;5085897;28;20425;-90
2022/05/09 06:40:08;;;;;;;2.08;1.10;;;16.00;99.90;;;;;;5088253;28;20467;-91
2022/05/09 06:42:35;;;;;;;1.40;1.00;;;16.00;99.90;;;;;;5085766;28;20393;-90
2022/05/09 06:45:06;;;;;;;1.45;1.00;;;15.90;99.90;;;;;;5102655;28;20777;-90
2022/05/09 06:47:34;;;;;;;1.95;1.00;;;15.90;99.90;;;;;;5095609;28;20395;-88
2022/05/09 06:50:05;;;;;;;1.10;0.90;;;15.80;99.90;;;;;;5094630;28;20460;-90
2022/05/09 06:52:32;;;;;;;2.40;0.93;;;15.90;99.90;;;;;;5092922;28;20440;-89
2022/05/09 06:54:59;;;;;;;1.70;0.90;;;15.80;99.90;;;;;;5091048;28;20489;-91
2022/05/09 06:57:27;;;;;;;1.17;0.70;;;15.70;99.90;;;;;;5091086;28;20379;-94
2022/05/09 06:59:54;;;;;;;1.35;0.90;;;15.80;99.90;;;;;;5111724;28;20469;-88
2022/05/09 07:02:21;;;;;;;2.50;1.00;;;15.80;99.90;;;;;;5104312;28;20465;-89
2022/05/09 07:04:48;;;;;;;2.50;1.00;;;15.70;99.90;;;;;;5093864;28;20399;-89
2022/05/09 07:07:15;;;;;;;1.67;0.90;;;15.70;99.90;;;;;;5092944;28;20402;-87
2022/05/09 07:09:42;;;;;;;1.13;0.80;;;15.70;99.90;;;;;;5080490;28;20475;-89
2022/05/09 07:12:09;;;;;;;2.13;1.00;;;15.60;99.90;;;;;;5089682;28;20390;-84
2022/05/09 07:14:36;;;;;;;2.45;1.00;;;15.60;99.90;;;;;;5090339;28;20400;-88
2022/05/09 07:17:04;;;;;;;1.65;1.00;;;15.60;99.90;;;;;;5090389;28;20383;-89
2022/05/09 07:19:31;;;;;;;1.20;1.00;;;15.50;99.90;;;;;;5091243;28;20380;-87
2022/05/09 07:21:58;;;;;;;2.92;1.05;;;15.50;99.90;;;;;;5102960;28;20443;-92
2022/05/09 07:24:25;;;;;;;3.65;1.17;;;15.50;99.90;;;;;;5089847;28;20393;-86
2022/05/09 07:26:52;;;;;;;2.20;1.30;;;15.50;99.90;;;;;;5088420;28;20725;-83
2022/05/09 07:29:19;;;;;;;1.45;1.30;;;15.50;99.90;;;;;;5098428;28;20397;-89
2022/05/09 07:31:46;;;;;;;2.03;1.40;;;15.40;99.90;;;;;;5091740;27;20388;-89
2022/05/09 07:34:13;;;;;;;4.07;1.70;;;15.40;99.90;;;;;;5104489;28;20573;-94
2022/05/09 07:36:41;;;;;;;3.42;2.10;;;15.40;99.90;;;;;;5094048;28;20414;-92
2022/05/09 07:39:08;;;;;;;3.05;1.98;;;15.30;99.90;;;;;;5090415;28;20388;-88
2022/05/09 07:41:35;;;;;;;3.67;1.80;;;15.30;99.90;;;;;;5102244;28;20374;-91
2022/05/09 07:44:03;;;;;;;3.88;1.80;;;15.20;99.90;;;;;;5092522;28;20465;-86
2022/05/09 07:46:30;;;;;;;3.00;1.60;;;15.20;99.90;;;;;;5099697;28;20894;-84
2022/05/09 07:48:57;;;;;;;2.42;1.80;;;15.20;99.90;;;;;;5090117;28;20890;-86
2022/05/09 07:51:24;;;;;;;2.95;1.60;;;15.10;99.90;;;;;;5092000;28;20403;-86
2022/05/09 07:53:51;;;;;;;2.40;2.20;;;15.10;99.90;;;;;;5090866;28;20398;-84
2022/05/09 07:56:18;;;;;;;3.70;2.10;;;15.00;99.90;;;;;;5090177;28;20372;-88
2022/05/09 07:58:51;;;;;;;4.60;2.23;;;15.00;99.90;;;;;;5089930;28;20380;-91
2022/05/09 08:01:18;;;;;;;4.40;2.33;;;15.10;99.90;;;;;;5093780;28;20396;-89
2022/05/09 08:03:45;;;;;;;6.87;2.20;;;15.00;99.90;;;;;;5091563;28;21026;-88
2022/05/09 08:06:12;;;;;;;4.33;2.37;;;15.00;99.90;;;;;;5088992;28;20736;-88
2022/05/09 08:08:40;;;;;;;4.93;2.30;;;15.00;99.90;;;;;;5089323;28;20397;-91
2022/05/09 08:11:07;;;;;;;5.72;2.20;;;15.00;99.90;;;;;;5089226;28;20387;-87
2022/05/09 08:13:35;;;;;;;5.80;2.38;;;15.00;99.90;;;;;;5091044;28;20400;-92
2022/05/09 08:16:04;;;;;;;5.18;2.60;;;14.90;99.90;;;;;;5089506;28;20941;-88
2022/05/09 08:18:32;;;;;;;6.22;3.25;;;14.90;99.90;;;;;;5088429;28;20379;-87
2022/05/09 08:21:00;;;;;;;5.22;2.95;;;14.90;99.90;;;;;;5089572;28;20394;-88
2022/05/09 08:23:30;;;;;;;5.57;3.10;;;14.90;99.90;;;;;;5089053;28;20451;-87
2022/05/09 08:25:58;;;;;;;6.75;3.40;;;14.90;99.90;;;;;;5089290;28;20376;-94
2022/05/09 08:28:25;;;;;;;8.13;3.50;;;14.90;99.90;;;;;;5088701;28;20386;-89
2022/05/09 08:30:52;;;;;;;7.82;4.00;;;15.00;99.90;;;;;;5089180;28;20400;-86
2022/05/09 08:33:30;;;;;;;8.85;7.28;;;15.00;99.90;;;;;;5088591;28;20446;-90
2022/05/09 08:35:57;;;;;;;9.93;5.70;;;15.00;99.90;;;;;;5090235;28;20399;-91
2022/05/09 08:38:24;;;;;;;7.22;5.22;;;15.00;99.90;;;;;;5092388;28;20386;-87
2022/05/09 08:41:08;;;;;;;5.27;4.10;;;14.90;99.90;;;;;;5108106;28;20383;-91
2022/05/09 08:44:10;;;;;;;6.53;4.07;;;14.90;99.90;;;;;;5111298;27;20952;-93
2022/05/09 08:46:46;;;;;;;6.63;4.00;;;14.90;99.90;;;;;;5110197;28;20363;-93
2022/05/09 08:49:23;;;;;;;6.05;3.70;;;15.00;99.90;;;;;;5110172;28;20374;-91
2022/05/09 08:52:22;;;;;;;6.00;3.60;;;15.00;99.90;;;;;;5110149;28;20416;-88
2022/05/09 08:54:50;;;;;;;5.32;3.55;;;15.00;99.90;;;;;;5106587;28;20957;-88
2022/05/09 08:57:31;;;;;;;5.25;3.67;;;15.00;99.90;;;;;;5086140;28;20382;-89
2022/05/09 09:00:05;;;;;;;12.00;10.73;;;15.00;99.90;;;;;;5098563;28;20394;-89
2022/05/09 09:02:41;;;;;;;17.65;11.98;;;15.10;99.90;;;;;;5087609;28;20380;-93
2022/05/09 09:05:12;;;;;;;11.38;8.00;;;15.00;99.90;;;;;;5088484;28;20391;-88
2022/05/09 09:07:50;;;;;;;7.63;6.10;;;15.10;99.90;;;;;;5088892;28;20372;-89
2022/05/09 09:10:22;;;;;;;6.25;4.97;;;15.00;99.90;;;;;;5108658;28;20378;-85
2022/05/09 09:12:59;;;;;;;6.68;4.50;;;15.00;99.90;;;;;;5108296;28;20374;-89
2022/05/09 09:15:29;;;;;;;6.55;4.35;;;15.10;99.90;;;;;;5108147;28;20421;-90
2022/05/09 09:18:36;;;;;;;5.07;4.32;;;15.00;99.90;;;;;;5093251;28;20380;-89
2022/05/09 09:21:15;;;;;;;7.28;5.28;;;15.00;99.90;;;;;;5093560;28;20448;-86
2022/05/09 09:24:03;;;;;;;6.78;5.50;;;14.90;99.90;;;;;;5101738;28;20467;-90
2022/05/09 09:26:42;;;;;;;7.60;6.90;;;14.90;99.90;;;;;;5093493;28;20741;-86
2022/05/09 09:29:43;;;;;;;9.60;8.10;;;14.80;99.90;;;;;;5089678;28;20367;-85
2022/05/09 09:32:18;;;;;;;12.90;11.63;;;14.90;99.90;;;;;;5074101;28;20394;-86
2022/05/09 09:35:03;;;;;;;8.32;6.38;;;14.80;99.90;;;;;;5062892;28;20797;-91
2022/05/09 09:37:56;;;;;;;10.47;7.20;;;14.70;99.90;;;;;;5045890;28;20383;-86
2022/05/09 09:40:23;;;;;;;10.88;8.65;;;14.70;99.90;;;;;;5044649;28;20593;-87
2022/05/09 09:42:54;;;;;;;8.50;7.10;;;14.70;99.90;;;;;;5044933;28;20391;-89
2022/05/09 09:45:40;;;;;;;8.07;6.35;;;14.70;99.90;;;;;;5059695;28;20465;-87
2022/05/09 09:48:09;;;;;;;7.32;5.82;;;14.70;99.90;;;;;;5025058;28;20388;-89
2022/05/09 09:50:37;;;;;;;8.70;6.40;;;14.70;99.90;;;;;;5024698;28;20369;-89
2022/05/09 09:53:05;;;;;;;8.70;6.53;;;14.60;99.90;;;;;;5025051;28;20385;-89
2022/05/09 09:55:43;;;;;;;9.52;7.05;;;14.60;99.90;;;;;;5024915;28;20431;-88
2022/05/09 09:58:21;;;;;;;7.53;5.80;;;14.60;99.90;;;;;;5025100;28;20385;-85
2022/05/09 10:01:21;;;;;;;7.63;5.80;;;14.60;99.90;;;;;;5031335;28;20453;-88
2022/05/09 10:04:04;;;;;;;6.32;4.70;;;14.60;99.90;;;;;;4970044;28;21062;-86
2022/05/09 10:06:32;;;;;;;5.15;3.88;;;14.60;99.90;;;;;;4966024;28;21195;-86
2022/05/09 10:09:03;;;;;;;4.65;3.50;;;14.60;99.90;;;;;;4962846;28;20888;-84
2022/05/09 10:11:31;;;;;;;4.47;3.20;;;14.60;99.90;;;;;;4985817;28;20418;-86
2022/05/09 10:14:07;;;;;;;7.28;3.10;;;14.50;99.90;;;;;;4986113;28;20435;-90
2022/05/09 10:16:47;;;;;;;6.60;2.80;;;14.50;99.90;;;;;;4998043;28;20419;-86
2022/05/09 10:19:30;;;;;;;4.78;2.40;;;14.40;99.90;;;;;;4990192;28;20753;-88
2022/05/09 10:25:10;;;;;;;4.32;2.10;;;14.40;99.90;;;;;;5005707;28;20939;-88
2022/05/09 10:27:38;;;;;;;3.45;1.83;;;14.40;99.90;;;;;;5001452;28;20501;-85
2022/05/09 10:30:30;;;;;;;3.55;1.70;;;14.40;99.90;;;;;;4990494;28;20481;-88
2022/05/09 10:33:21;;;;;;;3.88;1.60;;;14.40;99.90;;;;;;5009120;28;20533;-93
2022/05/09 10:35:54;;;;;;;3.10;1.40;;;14.40;99.90;;;;;;5007337;28;20413;-89
2022/05/09 10:38:36;;;;;;;2.45;1.58;;;14.40;99.90;;;;;;5006410;28;20383;-90
2022/05/09 10:41:13;;;;;;;2.43;1.30;;;14.40;99.90;;;;;;5041816;28;20428;-88
2022/05/09 10:44:12;;;;;;;3.03;1.40;;;14.30;99.90;;;;;;5091221;28;20425;-86
2022/05/09 10:46:52;;;;;;;1.27;1.00;;;14.40;99.90;;;;;;5109226;28;20477;-90
2022/05/09 10:49:43;;;;;;;2.55;1.05;;;14.30;99.90;;;;;;5105885;28;20452;-88
2022/05/09 10:52:33;;;;;;;2.37;1.10;;;14.40;99.90;;;;;;5089952;28;20429;-89
2022/05/09 10:55:17;;;;;;;2.85;1.00;;;14.40;99.90;;;;;;5088895;28;20446;-89
2022/05/09 10:57:57;;;;;;;3.97;1.30;;;14.40;99.90;;;;;;5093073;28;20433;-89
2022/05/09 11:00:27;;;;;;;10.55;1.80;;;14.30;99.90;;;;;;5111066;28;20461;-89
2022/05/09 11:03:00;;;;;;;5.03;1.60;;;14.30;99.90;;;;;;5097994;28;20445;-90
2022/05/09 11:05:35;;;;;;;3.17;1.30;;;14.30;99.90;;;;;;5093471;28;20378;-89
2022/05/09 11:08:27;;;;;;;6.68;1.50;;;14.30;99.90;;;;;;5090310;28;20412;-89
2022/05/09 11:11:00;;;;;;;1.90;1.23;;;14.30;99.90;;;;;;5027257;28;20981;-89
2022/05/09 11:14:07;;;;;;;5.32;1.38;;;14.20;99.90;;;;;;5032041;28;20495;-88
2022/05/09 11:16:56;;;;;;;7.45;1.90;;;14.30;99.90;;;;;;5024327;28;20468;-88
2022/05/09 11:19:35;;;;;;;12.18;2.28;;;14.30;99.90;;;;;;5046965;28;20955;-87
2022/05/09 11:22:35;;;;;;;10.90;2.10;;;14.30;99.90;;;;;;5047693;28;20387;-87
2022/05/09 11:25:44;;;;;;;11.43;2.30;;;14.30;99.90;;;;;;4947998;29;20388;-89
2022/05/09 11:28:38;;;;;;;8.77;1.83;;;14.20;99.90;;;;;;4911273;29;20745;-88
2022/05/09 11:31:10;;;;;;;5.65;1.40;;;14.20;99.90;;;;;;4916943;29;20450;-85
2022/05/09 11:34:01;;;;;;;3.08;1.30;;;14.20;99.90;;;;;;4913875;29;20414;-87
2022/05/09 11:36:49;;;;;;;2.75;1.40;;;14.20;99.90;;;;;;4895667;29;20408;-89
2022/05/09 11:39:49;;;;;;;3.05;1.38;;;14.10;99.90;;;;;;4911467;29;20401;-87
2022/05/09 11:45:40;;;;;;;4.13;1.30;;;14.10;99.90;;;;;;4910762;29;20474;-90
2022/05/09 11:48:15;;;;;;;3.15;1.50;;;14.10;99.90;;;;;;4915051;29;20403;-88
2022/05/09 11:51:05;;;;;;;6.28;1.67;;;14.00;99.90;;;;;;4948606;29;20776;-88
2022/05/09 11:53:37;;;;;;;3.60;1.30;;;14.00;99.90;;;;;;4951186;29;20404;-88
2022/05/09 11:56:06;;;;;;;4.05;1.50;;;14.00;99.90;;;;;;4951095;29;20498;-87
2022/05/09 11:58:45;;;;;;;3.40;1.40;;;13.90;99.90;;;;;;4959508;29;20448;-88
2022/05/09 12:01:12;;;;;;;7.23;1.80;;;13.90;99.90;;;;;;4992373;28;20801;-86
2022/05/09 12:03:42;;;;;;;6.60;1.50;;;13.80;99.90;;;;;;5053007;28;20426;-85
2022/05/09 12:06:36;;;;;;;5.53;1.52;;;13.90;99.90;;;;;;5095064;28;20419;-86
2022/05/09 12:09:09;;;;;;;4.13;1.50;;;13.80;99.90;;;;;;5100144;28;20404;-88
2022/05/09 12:11:51;;;;;;;6.10;1.63;;;13.80;99.90;;;;;;5076178;28;20378;-86
2022/05/09 12:14:43;;;;;;;4.93;1.60;;;13.80;99.90;;;;;;5095577;28;20399;-87
2022/05/09 12:17:22;;;;;;;11.95;1.90;;;13.80;99.90;;;;;;5109789;28;20366;-86
2022/05/09 12:19:50;;;;;;;7.97;1.98;;;13.80;99.90;;;;;;5099090;28;20389;-87
2022/05/09 12:22:34;;;;;;;11.73;1.80;;;13.80;99.90;;;;;;5099775;28;20372;-86
2022/05/09 12:25:08;;;;;;;8.35;1.80;;;13.80;99.90;;;;;;5087613;28;21170;-87
2022/05/09 12:28:03;;;;;;;9.18;2.00;;;13.80;99.90;;;;;;5090009;28;20392;-86
2022/05/09 12:31:01;;;;;;;8.50;2.13;;;13.80;99.90;;;;;;5088276;28;20796;-87
2022/05/09 12:33:49;;;;;;;6.97;2.30;;;13.80;99.90;;;;;;5087783;28;20433;-88
2022/05/09 12:36:18;;;;;;;9.45;2.15;;;13.80;99.90;;;;;;5088393;28;20392;-87
2022/05/09 12:38:50;;;;;;;8.98;2.20;;;13.90;99.90;;;;;;5096104;28;20375;-88
2022/05/09 12:41:18;;;;;;;5.75;1.70;;;13.90;99.90;;;;;;5100860;28;20391;-87
2022/05/09 12:44:00;;;;;;;5.43;1.60;;;13.90;99.90;;;;;;5108433;28;20728;-88
2022/05/09 12:46:40;;;;;;;2.08;1.10;;;13.90;99.90;;;;;;5097041;28;20390;-88
2022/05/09 12:49:09;;;;;;;2.78;1.10;;;13.90;99.90;;;;;;5088602;28;20360;-88
2022/05/09 12:51:46;;;;;;;2.50;0.90;;;13.90;99.90;;;;;;5087658;28;20511;-88
2022/05/09 12:54:16;;;;;;;2.60;1.63;;;14.00;99.90;;;;;;5086781;28;20921;-88
2022/05/09 12:56:49;;;;;;;2.80;1.30;;;14.00;99.90;;;;;;5087169;28;20895;-88
2022/05/09 12:59:18;;;;;;;3.30;1.20;;;14.00;99.90;;;;;;5088105;28;20381;-88
2022/05/09 13:01:57;;;;;;;3.60;1.20;;;14.00;99.90;;;;;;5086463;28;20424;-90
2022/05/09 13:04:28;;;;;;;3.38;1.00;;;14.00;99.90;;;;;;5087208;28;20372;-89
2022/05/09 13:07:04;;;;;;;1.38;0.90;;;14.00;99.90;;;;;;5087530;28;20415;-87
2022/05/09 13:09:34;;;;;;;1.83;0.80;;;14.00;99.90;;;;;;5086920;28;20922;-87
2022/05/09 13:12:10;;;;;;;2.38;0.95;;;14.00;99.90;;;;;;5087355;28;20391;-88
2022/05/09 13:14:45;;;;;;;1.42;0.80;;;14.00;99.90;;;;;;5087459;28;20404;-89
2022/05/09 13:17:22;;;;;;;2.33;0.90;;;14.00;99.90;;;;;;5088088;28;20368;-87
2022/05/09 13:19:53;;;;;;;2.92;1.00;;;14.00;99.90;;;;;;5069621;28;20888;-88
2022/05/09 13:22:22;;;;;;;2.10;0.90;;;14.00;99.90;;;;;;5097402;28;20386;-89
2022/05/09 13:24:55;;;;;;;1.80;0.82;;;14.00;99.90;;;;;;5108130;28;20377;-90
2022/05/09 13:27:23;;;;;;;2.47;0.90;;;14.00;99.90;;;;;;5106250;28;20375;-89
2022/05/09 13:29:52;;;;;;;2.90;1.00;;;14.00;99.90;;;;;;5107433;28;20394;-89
2022/05/09 13:32:34;;;;;;;2.78;1.10;;;14.00;99.90;;;;;;5106501;28;20382;-89